Murfreesboro, Arkansas
Current Conditions -  °F | °C
As of 9:53 AM on Thursday 27 Nov 2014 (Local Time) from KMWT Reporting Station
Clear Clear  
Wind Chill: 35°   Ceiling: Unl
Heat Index: 40°   Visibility: 10mi
Dew Point: 25°   Wind: 7mph
Humidity: 55%   Direction: 330°NNW
Pressure: 30.52"   Gusts: NA
Location:  34.06°N, 93.69°W
Report Text: KMWT 271553Z AUTO 33006KT 10SM CLR 04/M04 A3052 RMK AO2 SLP343 T00441039
Loading
Personal Weather Stations






























Interactive Weather Map New forecast layout! Learn more

10-Day Weather Forecast

Advertisements
Track Severe Weather on mobile